Time;durP1;ratioP1;P1;durP2;ratioP2;P2;SDS_P1;SDS_P2;PMS_P1;PMS_P2;Temp;Humidity;BMP_temperature;BMP_pressure;BME280_temperature;BME280_humidity;BME280_pressure;Samples;Min_cycle;Max_cycle;Signal;HPM_P1;HPM_P2
2022/01/01 00:00:16;;;;;;;38.03;27.80;;;11.00;93.50;;;;;;5144315;27;20284;-84
2022/01/01 00:02:43;;;;;;;36.45;28.35;;;11.00;93.50;;;;;;5152434;27;20263;-83
2022/01/01 00:05:12;;;;;;;36.63;26.85;;;11.10;93.40;;;;;;5152897;27;20251;-84
2022/01/01 00:07:39;;;;;;;34.70;26.35;;;11.00;93.40;;;;;;5149848;27;20287;-84
2022/01/01 00:10:09;;;;;;;31.15;23.85;;;11.00;93.50;;;;;;5152611;27;20267;-83
2022/01/01 00:12:36;;;;;;;30.67;24.40;;;11.00;93.50;;;;;;5150448;27;20295;-83
2022/01/01 00:15:04;;;;;;;29.58;24.00;;;11.00;93.50;;;;;;5142971;27;20204;-84
2022/01/01 00:17:31;;;;;;;29.50;23.25;;;10.90;93.50;;;;;;5143668;27;20268;-84
2022/01/01 00:19:58;;;;;;;31.08;23.45;;;10.90;94.20;;;;;;5143459;27;20679;-83
2022/01/01 00:22:25;;;;;;;27.75;22.00;;;10.80;94.60;;;;;;5143540;27;20223;-84
2022/01/01 00:24:51;;;;;;;26.83;19.83;;;10.80;95.10;;;;;;5149705;27;20206;-82
2022/01/01 00:27:20;;;;;;;25.92;19.33;;;10.80;94.70;;;;;;5158024;27;20191;-81
2022/01/01 00:29:47;;;;;;;29.92;19.90;;;10.80;95.20;;;;;;5159287;27;20187;-81
2022/01/01 00:32:13;;;;;;;25.15;19.15;;;10.70;95.60;;;;;;5159160;27;20208;-81
2022/01/01 00:34:40;;;;;;;23.35;17.85;;;10.80;96.50;;;;;;5158899;27;20211;-81
2022/01/01 00:37:08;;;;;;;22.00;18.17;;;10.70;96.90;;;;;;5158735;27;20192;-81
2022/01/01 00:39:35;;;;;;;26.00;19.70;;;10.70;97.70;;;;;;5158407;27;20195;-82
2022/01/01 00:42:02;;;;;;;25.65;19.80;;;10.60;98.10;;;;;;5144735;27;20231;-84
2022/01/01 00:44:32;;;;;;;28.30;19.15;;;10.60;98.70;;;;;;5146199;27;20234;-85
2022/01/01 00:46:59;;;;;;;30.05;20.30;;;10.60;99.50;;;;;;5144358;27;20576;-85
2022/01/01 00:49:26;;;;;;;28.48;19.88;;;10.50;99.90;;;;;;5144711;27;20263;-85
2022/01/01 00:51:53;;;;;;;28.10;18.60;;;10.40;99.90;;;;;;5144512;27;20228;-86
2022/01/01 00:54:20;;;;;;;24.95;19.65;;;10.40;99.90;;;;;;5150329;27;20203;-84
2022/01/01 00:56:47;;;;;;;26.52;19.90;;;10.40;99.90;;;;;;5149949;27;20204;-83
2022/01/01 00:59:15;;;;;;;32.50;21.25;;;10.40;99.90;;;;;;5153321;27;20239;-82
2022/01/01 01:01:43;;;;;;;26.23;17.75;;;10.30;99.90;;;;;;5152953;27;20224;-82
2022/01/01 01:04:10;;;;;;;27.52;19.02;;;10.30;99.90;;;;;;5153262;27;20223;-84
2022/01/01 01:06:37;;;;;;;24.70;16.77;;;10.30;99.90;;;;;;5154791;27;20219;-83
2022/01/01 01:09:04;;;;;;;27.58;17.85;;;10.30;99.90;;;;;;5155308;27;20207;-82
2022/01/01 01:11:31;;;;;;;23.50;16.13;;;10.30;99.90;;;;;;5148021;27;20244;-82
2022/01/01 01:14:00;;;;;;;27.95;18.02;;;10.30;99.90;;;;;;5148715;27;20200;-83
2022/01/01 01:16:28;;;;;;;23.50;16.55;;;10.30;99.90;;;;;;5149485;27;20548;-82
2022/01/01 01:18:57;;;;;;;23.08;15.38;;;10.30;99.90;;;;;;5151792;27;20275;-81
2022/01/01 01:21:25;;;;;;;20.33;14.20;;;10.20;99.90;;;;;;5151232;27;20243;-84
2022/01/01 01:23:54;;;;;;;20.10;14.02;;;10.20;99.90;;;;;;5150850;27;20675;-82
2022/01/01 01:26:22;;;;;;;20.15;14.13;;;10.20;99.90;;;;;;5143362;27;20204;-82
2022/01/01 01:28:51;;;;;;;19.25;14.38;;;10.20;99.90;;;;;;5142491;27;20662;-82
2022/01/01 01:31:19;;;;;;;18.95;13.07;;;10.10;99.90;;;;;;5155485;27;20243;-82
2022/01/01 01:33:46;;;;;;;20.40;15.40;;;10.20;99.90;;;;;;5146785;27;20211;-82
2022/01/01 01:36:14;;;;;;;21.40;15.65;;;10.10;99.90;;;;;;5143694;27;20249;-83
2022/01/01 01:38:41;;;;;;;23.00;15.25;;;10.20;99.90;;;;;;5142393;27;20553;-81
2022/01/01 01:41:09;;;;;;;22.30;15.95;;;10.10;99.90;;;;;;5142084;27;20235;-82
2022/01/01 01:43:37;;;;;;;21.95;15.88;;;10.20;99.90;;;;;;5141860;27;20214;-83
2022/01/01 01:46:06;;;;;;;26.27;16.10;;;10.10;99.90;;;;;;5141866;27;20207;-83
2022/01/01 01:48:34;;;;;;;24.30;15.10;;;10.10;99.90;;;;;;5142006;27;20207;-83
2022/01/01 01:51:01;;;;;;;22.17;15.18;;;10.20;99.90;;;;;;5141384;27;20300;-83
2022/01/01 01:53:30;;;;;;;21.70;15.40;;;10.20;99.90;;;;;;5142289;27;20199;-84
2022/01/01 01:55:59;;;;;;;23.30;15.05;;;10.10;99.90;;;;;;5144639;27;20673;-84
2022/01/01 01:58:28;;;;;;;18.27;13.18;;;10.10;99.90;;;;;;5144453;27;20263;-83
2022/01/01 02:03:39;;;;;;;20.42;14.05;;;10.10;99.90;;;;;;5156342;27;20199;-82
2022/01/01 02:06:08;;;;;;;19.20;13.80;;;10.10;99.90;;;;;;5147455;27;20275;-83
2022/01/01 02:08:36;;;;;;;24.50;14.18;;;10.10;99.90;;;;;;5144057;27;20204;-81
2022/01/01 02:11:04;;;;;;;24.67;13.95;;;10.10;99.90;;;;;;5142585;27;20228;-82
2022/01/01 02:13:35;;;;;;;21.40;15.50;;;10.10;99.90;;;;;;5142580;27;20269;-83
2022/01/01 02:18:56;;;;;;;20.63;14.30;;;10.00;99.90;;;;;;5141308;27;20198;-83
2022/01/01 02:21:24;;;;;;;25.00;14.93;;;10.00;99.90;;;;;;5142507;27;20326;-84
2022/01/01 02:23:57;;;;;;;22.92;14.45;;;10.00;99.90;;;;;;5143994;27;20323;-84
2022/01/01 02:26:30;;;;;;;19.42;13.25;;;10.00;99.90;;;;;;5142932;27;20255;-84
2022/01/01 02:28:58;;;;;;;16.00;12.63;;;10.00;99.90;;;;;;5143029;27;20211;-84
2022/01/01 02:31:25;;;;;;;22.02;14.65;;;10.00;99.90;;;;;;5142537;27;20220;-83
2022/01/01 02:33:52;;;;;;;21.10;14.40;;;9.90;99.90;;;;;;5142235;27;20200;-83
2022/01/01 02:36:31;;;;;;;19.65;13.85;;;10.00;99.90;;;;;;5142461;27;20204;-83
2022/01/01 02:38:58;;;;;;;27.55;14.65;;;9.90;99.90;;;;;;5143354;27;20641;-82
2022/01/01 02:41:26;;;;;;;24.50;14.68;;;9.90;99.90;;;;;;5141911;28;20231;-83
2022/01/01 02:43:53;;;;;;;24.92;14.30;;;10.00;99.90;;;;;;5143922;28;20574;-83
2022/01/01 02:46:20;;;;;;;22.20;14.63;;;10.00;99.90;;;;;;5144234;28;20275;-82
2022/01/01 02:48:47;;;;;;;21.98;12.93;;;10.00;99.90;;;;;;5151873;28;20259;-82
2022/01/01 02:51:14;;;;;;;21.95;14.38;;;10.00;99.90;;;;;;5167891;22;20251;-80
2022/01/01 02:53:44;;;;;;;20.40;14.38;;;10.00;99.90;;;;;;5141922;28;20242;-79
2022/01/01 02:56:11;;;;;;;20.15;14.35;;;10.00;99.90;;;;;;5139730;28;20203;-81
2022/01/01 02:58:38;;;;;;;19.08;13.80;;;10.00;99.90;;;;;;5148933;28;20267;-82
2022/01/01 03:01:05;;;;;;;25.65;15.00;;;10.00;99.90;;;;;;5152711;28;20223;-81
2022/01/01 03:03:32;;;;;;;22.38;14.05;;;10.00;99.90;;;;;;5139392;28;20223;-82
2022/01/01 03:05:59;;;;;;;35.97;24.25;;;10.00;99.90;;;;;;5140318;28;20319;-81
2022/01/01 03:08:26;;;;;;;21.90;15.68;;;10.10;99.90;;;;;;5140437;28;20247;-80
2022/01/01 03:10:54;;;;;;;20.48;14.05;;;10.10;99.90;;;;;;5140095;28;20231;-81
2022/01/01 03:13:21;;;;;;;19.25;13.25;;;10.10;99.90;;;;;;5140942;28;20212;-79
2022/01/01 03:15:49;;;;;;;19.80;14.73;;;10.10;99.90;;;;;;5143919;28;20239;-80
2022/01/01 03:18:15;;;;;;;20.73;14.07;;;10.10;99.90;;;;;;5153762;28;20219;-79
2022/01/01 03:20:42;;;;;;;17.55;13.02;;;10.10;99.90;;;;;;5151970;28;20645;-80
2022/01/01 03:23:09;;;;;;;20.98;14.13;;;10.10;99.90;;;;;;5147421;28;20686;-79
2022/01/01 03:25:36;;;;;;;23.23;14.65;;;10.10;99.90;;;;;;5141357;28;20343;-79
2022/01/01 03:28:05;;;;;;;23.38;15.65;;;10.10;99.90;;;;;;5146908;27;20196;-79
2022/01/01 03:30:33;;;;;;;20.30;14.85;;;10.10;99.90;;;;;;5156053;27;20284;-78
2022/01/01 03:32:59;;;;;;;20.90;14.48;;;10.00;99.90;;;;;;5156438;27;20203;-77
2022/01/01 03:35:27;;;;;;;23.02;14.70;;;10.10;99.90;;;;;;5157386;27;20251;-78
2022/01/01 03:37:53;;;;;;;19.15;13.40;;;10.10;99.90;;;;;;5157359;27;20204;-79
2022/01/01 03:40:20;;;;;;;20.83;14.63;;;10.20;99.90;;;;;;5157121;27;20184;-80
2022/01/01 03:42:47;;;;;;;24.92;15.50;;;10.20;99.90;;;;;;5144097;28;20220;-81
2022/01/01 03:45:15;;;;;;;20.92;13.70;;;10.10;99.90;;;;;;5141508;27;20230;-80
2022/01/01 03:47:42;;;;;;;19.85;14.27;;;10.20;99.90;;;;;;5153577;27;20216;-78
2022/01/01 03:50:10;;;;;;;22.27;13.70;;;10.20;99.90;;;;;;5160640;27;20203;-77
2022/01/01 03:52:42;;;;;;;20.45;15.10;;;10.20;99.90;;;;;;5151896;27;20210;-80
2022/01/01 03:55:10;;;;;;;24.88;14.65;;;10.20;99.10;;;;;;5143263;27;20222;-80
2022/01/01 03:57:37;;;;;;;20.92;14.23;;;10.20;98.40;;;;;;5143718;27;20210;-81
2022/01/01 04:00:05;;;;;;;21.63;13.60;;;10.10;97.70;;;;;;5143990;27;20719;-79
2022/01/01 04:02:34;;;;;;;26.02;14.45;;;10.10;97.50;;;;;;5142837;27;20322;-80
2022/01/01 04:05:01;;;;;;;22.35;14.13;;;10.10;97.10;;;;;;5142498;27;20208;-81
2022/01/01 04:07:28;;;;;;;19.27;13.40;;;10.00;96.70;;;;;;5143631;27;20219;-81
2022/01/01 04:09:55;;;;;;;19.60;13.38;;;10.00;96.70;;;;;;5143195;27;20308;-80
2022/01/01 04:12:22;;;;;;;18.67;12.48;;;10.00;96.60;;;;;;5143867;27;20219;-79
2022/01/01 04:14:49;;;;;;;18.65;13.90;;;9.90;97.00;;;;;;5143559;27;20644;-80
2022/01/01 04:17:16;;;;;;;18.88;14.48;;;9.80;96.80;;;;;;5143292;27;20210;-81
2022/01/01 04:19:45;;;;;;;20.00;15.23;;;9.70;97.00;;;;;;5143415;27;20207;-80
2022/01/01 04:22:15;;;;;;;18.58;13.82;;;9.70;97.30;;;;;;5142879;27;20274;-80
2022/01/01 04:24:42;;;;;;;21.67;13.77;;;9.60;97.70;;;;;;5143218;27;20209;-80
2022/01/01 04:27:09;;;;;;;21.50;14.05;;;9.50;98.20;;;;;;5143569;27;20240;-81
2022/01/01 04:29:38;;;;;;;23.25;15.50;;;9.40;98.60;;;;;;5143210;27;20287;-81
2022/01/01 04:32:06;;;;;;;23.42;14.98;;;9.20;99.00;;;;;;5143060;27;20225;-81
2022/01/01 04:34:33;;;;;;;23.77;14.80;;;9.10;99.90;;;;;;5143172;27;20215;-80
2022/01/01 04:37:05;;;;;;;22.48;15.07;;;9.10;99.90;;;;;;5142951;27;20690;-81
2022/01/01 04:39:32;;;;;;;24.92;15.35;;;9.00;99.90;;;;;;5142007;27;20207;-81
2022/01/01 04:41:59;;;;;;;20.20;15.10;;;8.90;99.90;;;;;;5142299;27;20238;-81
2022/01/01 04:44:26;;;;;;;23.17;14.95;;;8.90;99.90;;;;;;5142750;27;20260;-81
2022/01/01 04:46:53;;;;;;;25.05;16.17;;;8.90;99.90;;;;;;5155108;27;20204;-80
2022/01/01 04:49:22;;;;;;;24.02;15.55;;;8.80;99.90;;;;;;5159603;27;20187;-79
2022/01/01 04:51:49;;;;;;;25.58;15.65;;;8.80;99.90;;;;;;5153194;27;20232;-80
2022/01/01 04:54:17;;;;;;;22.70;15.15;;;8.80;99.90;;;;;;5152301;27;20271;-82
2022/01/01 04:56:46;;;;;;;26.65;16.30;;;8.90;99.90;;;;;;5147490;27;20207;-80
2022/01/01 04:59:14;;;;;;;25.10;16.63;;;8.90;99.90;;;;;;5142762;27;20200;-80
2022/01/01 05:01:41;;;;;;;19.90;14.82;;;9.00;99.90;;;;;;5142159;27;20711;-81
2022/01/01 05:04:08;;;;;;;24.00;15.85;;;9.00;99.90;;;;;;5141784;27;20238;-79
2022/01/01 05:06:35;;;;;;;21.92;16.25;;;9.00;99.90;;;;;;5140612;27;20207;-80
2022/01/01 05:09:03;;;;;;;22.35;15.88;;;9.10;99.90;;;;;;5141274;27;20254;-80
2022/01/01 05:11:31;;;;;;;22.35;15.13;;;9.10;99.90;;;;;;5141419;27;20226;-80
2022/01/01 05:13:58;;;;;;;21.40;16.67;;;9.20;99.90;;;;;;5150041;27;20207;-80
2022/01/01 05:16:25;;;;;;;22.98;15.00;;;9.20;99.90;;;;;;5153921;27;20254;-81
2022/01/01 05:18:52;;;;;;;24.58;16.63;;;9.30;99.90;;;;;;5142192;27;20200;-81
2022/01/01 05:21:19;;;;;;;22.80;15.00;;;9.40;99.90;;;;;;5154319;27;20287;-79
2022/01/01 05:23:46;;;;;;;23.08;15.27;;;9.40;99.90;;;;;;5154467;27;20247;-80
2022/01/01 05:26:13;;;;;;;22.83;15.57;;;9.40;99.90;;;;;;5152581;27;20279;-81
2022/01/01 05:28:43;;;;;;;21.58;14.25;;;9.40;99.90;;;;;;5152965;27;20203;-81
2022/01/01 05:31:09;;;;;;;20.40;13.77;;;9.40;99.90;;;;;;5140445;27;20243;-80
2022/01/01 05:33:36;;;;;;;21.05;15.02;;;9.50;99.00;;;;;;5139497;27;20230;-81
2022/01/01 05:36:03;;;;;;;21.75;13.95;;;9.50;97.90;;;;;;5140604;27;20254;-81
2022/01/01 05:38:30;;;;;;;26.50;15.23;;;9.50;96.90;;;;;;5140793;27;20298;-81
2022/01/01 05:40:57;;;;;;;21.63;13.68;;;9.50;96.60;;;;;;5140853;27;20239;-81
2022/01/01 05:43:24;;;;;;;19.05;13.25;;;9.50;95.90;;;;;;5141229;27;20219;-81
2022/01/01 05:45:52;;;;;;;16.40;12.43;;;9.60;95.20;;;;;;5151325;27;20215;-81
2022/01/01 05:48:19;;;;;;;20.60;13.50;;;9.60;95.00;;;;;;5156068;27;20218;-82
2022/01/01 05:50:46;;;;;;;23.08;13.23;;;9.60;94.90;;;;;;5142771;27;20319;-80
2022/01/01 05:53:13;;;;;;;18.40;12.90;;;9.60;94.90;;;;;;5155116;27;20223;-79
2022/01/01 05:55:40;;;;;;;16.63;11.70;;;9.70;94.80;;;;;;5157643;27;20200;-78
2022/01/01 05:58:07;;;;;;;16.42;12.32;;;9.70;94.20;;;;;;5144521;27;20288;-79
2022/01/01 06:00:35;;;;;;;19.75;12.30;;;9.80;93.40;;;;;;5142746;27;20227;-81
2022/01/01 06:03:03;;;;;;;20.10;13.68;;;9.80;92.90;;;;;;5152495;27;20288;-81
2022/01/01 06:05:31;;;;;;;20.63;14.30;;;9.80;92.40;;;;;;5149154;27;20204;-82
2022/01/01 06:07:59;;;;;;;20.85;13.68;;;9.70;92.90;;;;;;5140090;27;20212;-81
2022/01/01 06:10:27;;;;;;;20.85;14.50;;;9.70;93.30;;;;;;5139267;27;20328;-81
2022/01/01 06:12:56;;;;;;;22.10;15.10;;;9.60;93.40;;;;;;5139679;27;20203;-81
2022/01/01 06:15:23;;;;;;;23.88;13.18;;;9.50;94.00;;;;;;5140146;27;20199;-81
2022/01/01 06:17:50;;;;;;;21.45;14.23;;;9.50;94.80;;;;;;5139659;27;20635;-80
2022/01/01 06:20:18;;;;;;;22.92;14.65;;;9.50;95.00;;;;;;5139333;27;20295;-79
2022/01/01 06:22:45;;;;;;;20.20;13.65;;;9.50;95.20;;;;;;5142407;27;20253;-79
2022/01/01 06:25:12;;;;;;;18.40;13.57;;;9.50;95.40;;;;;;5143036;27;20215;-81
2022/01/01 06:27:39;;;;;;;19.85;13.95;;;9.50;96.20;;;;;;5150524;27;20183;-80
2022/01/01 06:30:07;;;;;;;19.73;14.15;;;9.50;96.30;;;;;;5156304;27;20191;-78
2022/01/01 06:32:34;;;;;;;20.73;14.80;;;9.50;96.00;;;;;;5141620;27;20214;-78
2022/01/01 06:35:01;;;;;;;20.45;13.90;;;9.50;96.20;;;;;;5136543;27;20629;-78
2022/01/01 06:37:29;;;;;;;19.58;13.43;;;9.50;95.90;;;;;;5140926;27;20210;-81
2022/01/01 06:39:56;;;;;;;19.90;13.57;;;9.50;96.00;;;;;;5143327;27;20207;-78
2022/01/01 06:42:23;;;;;;;21.58;15.27;;;9.40;95.60;;;;;;5156082;28;20231;-80
2022/01/01 06:44:50;;;;;;;19.42;13.82;;;9.40;96.00;;;;;;5154002;28;20186;-81
2022/01/01 06:47:17;;;;;;;22.50;14.38;;;9.40;95.70;;;;;;5153227;28;20235;-81
2022/01/01 06:49:44;;;;;;;18.08;13.02;;;9.30;95.80;;;;;;5149113;28;20223;-78
2022/01/01 06:52:11;;;;;;;19.73;13.32;;;9.30;95.80;;;;;;5128225;28;20296;-80
2022/01/01 06:54:39;;;;;;;20.85;14.20;;;9.30;96.00;;;;;;5145370;28;20223;-81
2022/01/01 06:57:08;;;;;;;20.33;14.50;;;9.20;96.00;;;;;;5148714;28;20235;-79
2022/01/01 06:59:35;;;;;;;17.02;12.55;;;9.10;96.70;;;;;;5150191;28;20208;-81
2022/01/01 07:02:02;;;;;;;16.25;12.55;;;9.10;96.80;;;;;;5155246;28;20223;-81
2022/01/01 07:12:17;;;;;;;17.42;12.60;;;8.90;97.40;;;;;;6100771;22;21494;-79
2022/01/01 07:17:27;;;;;;;19.92;13.35;;;8.80;97.70;;;;;;5880936;22;20238;-78
2022/01/01 07:19:54;;;;;;;20.20;13.52;;;8.80;97.50;;;;;;5063941;28;20206;-79
2022/01/01 07:22:22;;;;;;;24.33;14.35;;;8.70;97.50;;;;;;5624096;22;20228;-77
2022/01/01 07:24:50;;;;;;;20.58;13.93;;;8.70;98.30;;;;;;5101589;28;20274;-78
2022/01/01 07:27:20;;;;;;;20.15;13.02;;;8.60;98.20;;;;;;5115716;28;20221;-78
2022/01/01 08:13:51;;;;;;;15.50;10.80;;;9.20;97.10;;;;;;4849965;29;20213;-77
2022/01/01 08:33:03;;;;;;;14.32;10.55;;;9.60;92.10;;;;;;4979532;28;20224;-78
2022/01/01 08:35:31;;;;;;;17.45;10.20;;;9.70;91.80;;;;;;4978259;29;20194;-79
2022/01/01 08:37:58;;;;;;;15.93;9.90;;;9.70;90.90;;;;;;4973181;29;20217;-80
2022/01/01 08:40:25;;;;;;;12.23;9.65;;;9.70;90.60;;;;;;4974236;28;20224;-80
2022/01/01 08:42:52;;;;;;;11.80;9.85;;;9.80;89.70;;;;;;4971705;29;20228;-79
2022/01/01 08:45:19;;;;;;;12.07;9.93;;;9.80;89.60;;;;;;4971673;29;20341;-80
2022/01/01 08:47:46;;;;;;;13.10;9.88;;;9.90;89.70;;;;;;4978034;28;20185;-77
2022/01/01 08:50:15;;;;;;;14.43;9.15;;;10.00;87.10;;;;;;4979508;28;20226;-78
2022/01/01 08:52:44;;;;;;;15.60;9.65;;;10.10;86.60;;;;;;4979689;28;20261;-79
2022/01/01 08:55:11;;;;;;;12.95;10.15;;;10.20;85.20;;;;;;4979563;28;20224;-78
2022/01/01 09:03:44;;;;;;;15.68;9.52;;;10.40;83.10;;;;;;5710067;22;20232;-78
2022/01/01 09:06:13;;;;;;;12.80;10.43;;;10.50;82.20;;;;;;5116169;28;20235;-77
2022/01/01 09:18:58;;;;;;;14.23;11.02;;;10.40;80.90;;;;;;5125415;22;20218;-84
2022/01/01 09:21:28;;;;;;;12.65;9.93;;;10.40;80.90;;;;;;5078626;28;20187;-84
2022/01/01 09:23:55;;;;;;;14.07;10.50;;;10.40;80.90;;;;;;5078460;28;20214;-85
2022/01/01 09:26:26;;;;;;;13.65;11.45;;;10.40;80.50;;;;;;5078578;28;20191;-84
2022/01/01 09:28:53;;;;;;;16.25;11.23;;;10.00;81.20;;;;;;5078512;28;20240;-84
2022/01/01 09:31:21;;;;;;;15.50;10.63;;;10.00;83.50;;;;;;5078381;28;20206;-83
2022/01/01 09:33:48;;;;;;;12.73;9.63;;;10.20;83.40;;;;;;5078109;28;20183;-82
2022/01/01 09:36:17;;;;;;;13.07;10.30;;;10.30;82.80;;;;;;5076742;28;20258;-84
2022/01/01 09:38:46;;;;;;;14.88;9.70;;;10.40;81.20;;;;;;5073551;28;20300;-83
2022/01/01 09:41:15;;;;;;;17.70;10.90;;;10.40;80.80;;;;;;5074869;28;20206;-84
2022/01/01 09:43:43;;;;;;;13.63;10.80;;;10.40;82.30;;;;;;5073527;28;20214;-81
2022/01/01 09:46:14;;;;;;;15.35;10.30;;;10.50;81.40;;;;;;5073332;28;20211;-82
2022/01/01 09:48:41;;;;;;;12.70;9.23;;;10.60;80.80;;;;;;5074449;28;20226;-82
2022/01/01 09:51:09;;;;;;;12.82;10.50;;;10.60;78.10;;;;;;5071670;28;20207;-82
2022/01/01 09:53:36;;;;;;;13.35;9.65;;;10.60;79.00;;;;;;5066711;28;20289;-82
2022/01/01 09:56:05;;;;;;;11.52;9.18;;;10.80;78.30;;;;;;5059830;28;20202;-82
2022/01/01 09:58:34;;;;;;;20.15;9.20;;;10.90;77.10;;;;;;5066107;28;20225;-83
2022/01/01 10:01:02;;;;;;;11.52;8.60;;;10.90;77.10;;;;;;5073847;28;20247;-83
2022/01/01 10:03:31;;;;;;;13.32;9.32;;;10.90;76.60;;;;;;5075607;28;20214;-83
2022/01/01 10:05:59;;;;;;;13.38;8.80;;;10.90;77.00;;;;;;5076759;28;20193;-83
2022/01/01 10:08:26;;;;;;;12.77;9.30;;;11.00;77.20;;;;;;5076725;28;20266;-84
2022/01/01 10:10:53;;;;;;;12.48;9.75;;;11.00;77.20;;;;;;5073296;28;20226;-83
2022/01/01 10:13:28;;;;;;;12.85;9.90;;;10.90;77.10;;;;;;5072272;28;20225;-84
2022/01/01 10:15:56;;;;;;;13.68;9.15;;;10.90;77.10;;;;;;5066380;28;20217;-81
2022/01/01 10:18:27;;;;;;;13.65;8.95;;;10.90;77.10;;;;;;5069941;28;20252;-83
2022/01/01 10:20:58;;;;;;;10.65;7.75;;;11.00;77.20;;;;;;5065767;28;20201;-82
2022/01/01 10:23:29;;;;;;;12.18;9.23;;;11.00;77.20;;;;;;5063448;28;20222;-81
2022/01/01 10:29:02;;;;;;;12.80;8.23;;;10.70;78.90;;;;;;5064528;28;20295;-82
2022/01/01 10:31:30;;;;;;;8.85;7.95;;;10.90;79.00;;;;;;5066714;28;20190;-83
2022/01/01 10:33:57;;;;;;;10.20;7.97;;;11.00;78.40;;;;;;5066106;28;20216;-83
2022/01/01 10:36:24;;;;;;;11.57;8.07;;;11.20;78.20;;;;;;5063846;28;20218;-82
2022/01/01 10:38:51;;;;;;;9.52;8.10;;;11.30;77.50;;;;;;5064310;28;20230;-82
2022/01/01 10:41:18;;;;;;;10.07;7.68;;;11.30;77.50;;;;;;5065097;28;20305;-83
2022/01/01 10:43:46;;;;;;;9.98;7.70;;;11.40;77.50;;;;;;5065082;28;20294;-81
2022/01/01 10:46:17;;;;;;;10.30;8.65;;;11.40;77.50;;;;;;5061219;28;20202;-81
2022/01/01 10:48:56;;;;;;;9.35;8.27;;;11.50;77.60;;;;;;5061069;28;20230;-81
2022/01/01 10:51:24;;;;;;;9.88;8.30;;;11.60;77.00;;;;;;5071813;28;20186;-81
2022/01/01 10:54:01;;;;;;;10.18;7.50;;;11.70;76.90;;;;;;5068119;28;20210;-81
2022/01/01 10:56:37;;;;;;;10.35;8.13;;;11.90;76.20;;;;;;5067907;28;20212;-82
2022/01/01 10:59:05;;;;;;;11.52;8.45;;;12.00;75.80;;;;;;5066822;28;20600;-81
2022/01/01 11:01:37;;;;;;;12.00;8.35;;;12.10;75.30;;;;;;5063156;28;20217;-82
2022/01/01 11:04:05;;;;;;;10.02;7.45;;;12.20;73.90;;;;;;5063271;28;20226;-82
2022/01/01 11:06:33;;;;;;;10.35;7.88;;;12.20;73.90;;;;;;5065078;28;20210;-82
2022/01/01 11:09:01;;;;;;;9.82;7.20;;;12.40;73.90;;;;;;5063608;28;20324;-81
2022/01/01 11:11:31;;;;;;;8.25;7.15;;;12.50;73.20;;;;;;5063208;28;20226;-81
2022/01/01 11:13:58;;;;;;;10.15;7.85;;;12.60;72.70;;;;;;5065110;28;20436;-82
2022/01/01 11:16:26;;;;;;;10.00;7.22;;;12.70;71.90;;;;;;5067215;28;20202;-83
2022/01/01 11:18:56;;;;;;;9.38;6.40;;;12.70;70.50;;;;;;5065333;28;20264;-82
2022/01/01 11:21:24;;;;;;;6.97;6.20;;;12.80;70.10;;;;;;5066982;28;20210;-82
2022/01/01 11:23:52;;;;;;;6.00;5.40;;;12.80;70.10;;;;;;5065823;28;20223;-82
2022/01/01 11:26:19;;;;;;;6.93;5.57;;;12.80;70.10;;;;;;5063360;28;20198;-82
2022/01/01 11:28:46;;;;;;;8.57;5.90;;;12.90;69.20;;;;;;5063043;28;20293;-83
2022/01/01 11:31:16;;;;;;;8.43;6.47;;;12.90;69.00;;;;;;5063990;28;20210;-82
2022/01/01 11:33:50;;;;;;;6.05;5.18;;;12.90;68.90;;;;;;5070169;28;20183;-81
2022/01/01 11:36:31;;;;;;;6.65;5.63;;;12.90;68.50;;;;;;5076415;28;20189;-82
2022/01/01 11:39:04;;;;;;;5.32;4.82;;;12.90;67.90;;;;;;5079319;28;20241;-81
2022/01/01 11:41:39;;;;;;;6.43;5.50;;;12.90;67.80;;;;;;5076536;28;20266;-82
2022/01/01 11:44:26;;;;;;;5.63;5.13;;;13.00;67.50;;;;;;5079800;28;20297;-81
2022/01/01 11:46:58;;;;;;;6.40;5.20;;;13.10;67.00;;;;;;5079145;28;20191;-81
2022/01/01 11:49:30;;;;;;;6.20;5.53;;;13.20;66.60;;;;;;5078090;28;20459;-81
2022/01/01 11:52:03;;;;;;;6.53;5.43;;;13.20;66.70;;;;;;5078019;28;20208;-81
2022/01/01 11:54:33;;;;;;;6.05;5.47;;;13.30;66.70;;;;;;5069510;28;20202;-82
2022/01/01 11:57:19;;;;;;;5.68;5.07;;;13.30;66.20;;;;;;5068247;28;20302;-81
2022/01/01 11:59:49;;;;;;;5.90;5.30;;;13.50;66.30;;;;;;5066777;28;20697;-82
2022/01/01 12:02:49;;;;;;;5.70;5.07;;;13.50;65.10;;;;;;5064014;28;20556;-83
2022/01/01 12:05:33;;;;;;;5.75;5.00;;;13.50;65.00;;;;;;5019731;28;20226;-82
2022/01/01 12:08:02;;;;;;;7.20;6.30;;;13.60;64.60;;;;;;5063642;28;20222;-80
2022/01/01 12:10:35;;;;;;;6.95;5.50;;;13.60;65.10;;;;;;5065920;28;20461;-82
2022/01/01 12:13:05;;;;;;;6.37;5.77;;;13.60;64.30;;;;;;5067474;28;20214;-84
2022/01/01 12:15:51;;;;;;;6.88;5.60;;;13.60;64.20;;;;;;5066580;28;20936;-83
2022/01/01 12:18:20;;;;;;;10.95;5.57;;;13.60;64.30;;;;;;5070644;28;20269;-83
2022/01/01 12:20:50;;;;;;;8.70;6.57;;;13.50;64.10;;;;;;5077200;28;20269;-81
2022/01/01 12:23:20;;;;;;;7.88;5.70;;;13.50;64.70;;;;;;5072567;28;20476;-82
2022/01/01 12:25:49;;;;;;;6.10;5.50;;;13.50;64.90;;;;;;5077976;28;20233;-81
2022/01/01 12:28:18;;;;;;;7.13;5.95;;;13.60;65.10;;;;;;5078595;28;20489;-81
2022/01/01 12:30:48;;;;;;;5.60;4.23;;;13.60;64.80;;;;;;5072695;28;20234;-82
2022/01/01 12:33:27;;;;;;;6.25;5.22;;;13.60;64.50;;;;;;5071413;28;20449;-83
2022/01/01 12:35:55;;;;;;;7.80;4.80;;;13.60;63.60;;;;;;5071335;28;20224;-83
2022/01/01 12:38:27;;;;;;;9.83;4.90;;;13.60;63.70;;;;;;5070935;28;20239;-84
2022/01/01 12:41:03;;;;;;;8.60;4.83;;;13.60;63.20;;;;;;5071214;28;20968;-83
2022/01/01 12:43:33;;;;;;;6.03;4.30;;;13.50;63.20;;;;;;5068312;28;20494;-82
2022/01/01 12:46:01;;;;;;;5.40;4.80;;;13.50;63.50;;;;;;5065375;28;20493;-81
2022/01/01 12:48:32;;;;;;;5.38;4.30;;;13.50;63.00;;;;;;5064775;28;20503;-81
2022/01/01 12:51:02;;;;;;;5.97;5.03;;;13.50;63.10;;;;;;5044645;28;20217;-82
2022/01/01 12:53:32;;;;;;;7.23;4.90;;;13.60;63.60;;;;;;5063019;28;20224;-82
2022/01/01 12:56:05;;;;;;;5.73;4.80;;;13.50;64.40;;;;;;5062412;28;20464;-82
2022/01/01 12:58:34;;;;;;;7.30;4.60;;;13.50;64.00;;;;;;5062464;28;20456;-82
2022/01/01 13:01:13;;;;;;;6.27;4.70;;;13.50;64.10;;;;;;5063786;28;20973;-81
2022/01/01 13:03:40;;;;;;;6.30;4.50;;;13.50;64.10;;;;;;5066103;28;20933;-81
2022/01/01 13:06:09;;;;;;;7.00;4.57;;;13.50;64.00;;;;;;5064600;28;20568;-82
2022/01/01 13:08:43;;;;;;;6.43;5.40;;;13.50;64.50;;;;;;5066660;28;20523;-82
2022/01/01 13:11:22;;;;;;;6.30;4.50;;;13.60;64.50;;;;;;5069337;28;20426;-82
2022/01/01 13:13:50;;;;;;;5.60;4.30;;;13.70;64.60;;;;;;5073291;28;20414;-81
2022/01/01 13:16:17;;;;;;;5.75;4.70;;;13.70;63.90;;;;;;5074477;28;20460;-85
2022/01/01 13:18:44;;;;;;;6.70;4.43;;;13.60;64.10;;;;;;5073424;28;20234;-84
2022/01/01 13:21:11;;;;;;;6.40;5.30;;;13.60;64.20;;;;;;5076996;28;20469;-83
2022/01/01 13:23:38;;;;;;;6.20;5.50;;;13.50;64.20;;;;;;5077678;28;20487;-86
2022/01/01 13:26:07;;;;;;;6.97;4.65;;;13.50;64.80;;;;;;5076005;28;20484;-82
2022/01/01 13:28:35;;;;;;;4.77;4.20;;;13.50;64.40;;;;;;5075320;28;20226;-83
2022/01/01 13:31:04;;;;;;;8.45;5.32;;;13.40;64.30;;;;;;5075548;28;20526;-83
2022/01/01 13:33:32;;;;;;;6.50;5.35;;;13.40;64.70;;;;;;5072639;28;20233;-82
2022/01/01 13:36:01;;;;;;;6.80;4.97;;;13.30;64.70;;;;;;5071530;28;20293;-81
2022/01/01 13:38:30;;;;;;;4.57;4.00;;;13.30;65.40;;;;;;5070279;28;20465;-81
2022/01/01 13:40:59;;;;;;;7.30;4.43;;;13.40;65.20;;;;;;5069638;28;20491;-82
2022/01/01 13:43:33;;;;;;;6.57;5.38;;;13.40;65.30;;;;;;5073998;28;20464;-86
2022/01/01 13:46:12;;;;;;;6.47;4.65;;;13.40;65.30;;;;;;5075139;28;20224;-84
2022/01/01 13:48:45;;;;;;;5.30;4.70;;;13.30;65.20;;;;;;5066581;28;20241;-82
2022/01/01 13:51:13;;;;;;;7.00;5.00;;;13.30;65.70;;;;;;5063266;28;20227;-81
2022/01/01 13:53:42;;;;;;;5.53;4.68;;;13.30;65.60;;;;;;5062732;28;20210;-81
2022/01/01 13:56:11;;;;;;;7.10;5.05;;;13.20;66.00;;;;;;5065740;28;20210;-82
2022/01/01 13:58:45;;;;;;;7.35;5.20;;;13.20;66.00;;;;;;5071301;28;20299;-83
2022/01/01 14:01:15;;;;;;;6.82;5.25;;;13.00;66.10;;;;;;5074681;28;20226;-81
2022/01/01 14:03:43;;;;;;;6.30;4.97;;;13.00;66.60;;;;;;5072417;28;20239;-85
2022/01/01 14:06:14;;;;;;;5.05;4.55;;;13.00;66.90;;;;;;5076453;28;20276;-82
2022/01/01 14:08:57;;;;;;;8.55;5.25;;;13.10;67.00;;;;;;5065212;28;20230;-82
2022/01/01 14:11:28;;;;;;;6.00;5.15;;;13.00;67.10;;;;;;5064302;28;20254;-84
2022/01/01 14:14:11;;;;;;;5.90;4.50;;;13.00;67.10;;;;;;5065719;28;20231;-82
2022/01/01 14:16:46;;;;;;;6.22;5.45;;;13.00;67.50;;;;;;5072673;28;20269;-84
2022/01/01 14:19:14;;;;;;;6.68;5.40;;;12.90;67.80;;;;;;5071025;28;20242;-83